createdAt,value
2018-05-02T00:00:03.971Z,5.09
2018-05-02T00:03:09.213Z,5.06
2018-05-02T00:06:14.438Z,5.04
2018-05-02T00:09:19.533Z,4.96
2018-05-02T00:12:26.203Z,4.94
2018-05-02T00:15:33.132Z,4.92
2018-05-02T00:18:39.999Z,4.90
2018-05-02T00:21:46.785Z,4.86
2018-05-02T00:24:52.394Z,4.86
2018-05-02T00:27:57.593Z,4.81
2018-05-02T00:31:03.290Z,4.75
2018-05-02T00:34:09.512Z,4.74
2018-05-02T00:37:16.399Z,4.74
2018-05-02T00:40:22.627Z,4.68
2018-05-02T00:43:28.509Z,4.68
2018-05-02T00:46:33.709Z,4.61
2018-05-02T00:49:38.913Z,4.62
2018-05-02T00:52:44.117Z,4.57
2018-05-02T00:55:50.225Z,4.50
2018-05-02T00:58:55.984Z,4.50
2018-05-02T01:02:02.818Z,4.45
2018-05-02T01:05:09.849Z,4.47
2018-05-02T01:08:15.528Z,4.45
2018-05-02T01:11:21.560Z,4.39
2018-05-02T01:14:26.921Z,4.37
2018-05-02T01:17:33.070Z,4.31
2018-05-02T01:20:38.693Z,4.24
2018-05-02T01:23:43.624Z,4.20
2018-05-02T01:26:48.818Z,4.15
2018-05-02T01:29:54.045Z,4.13
2018-05-02T01:32:59.441Z,4.13
2018-05-02T01:36:04.305Z,4.11
2018-05-02T01:39:10.541Z,4.00
2018-05-02T01:42:16.370Z,3.98
2018-05-02T01:45:21.581Z,3.96
2018-05-02T01:48:27.289Z,3.98
2018-05-02T01:51:32.220Z,3.94
2018-05-02T01:54:37.422Z,3.88
2018-05-02T01:57:43.529Z,3.78
2018-05-02T02:00:50.089Z,3.76
2018-05-02T02:03:56.252Z,3.73
2018-05-02T02:07:02.409Z,3.75
2018-05-02T02:10:08.173Z,3.66
2018-05-02T02:13:14.633Z,3.63
2018-05-02T02:16:20.422Z,3.61
2018-05-02T02:19:27.445Z,3.54
2018-05-02T02:22:33.088Z,3.53
2018-05-02T02:25:39.245Z,3.54
2018-05-02T02:28:46.009Z,3.50
2018-05-02T02:31:52.161Z,3.46
2018-05-02T02:34:58.272Z,3.43
2018-05-02T02:38:04.617Z,3.46
2018-05-02T02:41:10.237Z,3.47
2018-05-02T02:44:16.348Z,3.39
2018-05-02T02:47:22.842Z,3.44
2018-05-02T02:50:28.640Z,3.35
2018-05-02T02:53:35.044Z,3.35
2018-05-02T02:56:40.885Z,3.32
2018-05-02T02:59:46.091Z,3.36
2018-05-02T03:02:52.616Z,3.27
2018-05-02T03:05:58.241Z,3.28
2018-05-02T03:09:05.116Z,3.26
2018-05-02T03:12:10.930Z,3.23
2018-05-02T03:15:17.070Z,3.19
2018-05-02T03:18:22.275Z,3.19
2018-05-02T03:21:28.397Z,3.20
2018-05-02T03:24:34.002Z,3.15
2018-05-02T03:27:41.185Z,3.16
2018-05-02T03:30:47.284Z,3.14
2018-05-02T03:33:54.313Z,3.12
2018-05-02T03:37:00.105Z,3.03
2018-05-02T03:40:04.994Z,3.08
2018-05-02T03:43:12.137Z,3.12
2018-05-02T03:46:17.959Z,3.06
2018-05-02T03:49:24.061Z,3.04
2018-05-02T03:52:29.669Z,3.02
2018-05-02T03:55:34.862Z,2.95
2018-05-02T03:58:41.960Z,2.96
2018-05-02T04:01:59.094Z,2.94
2018-05-02T04:05:15.182Z,2.98
2018-05-02T04:08:21.153Z,2.94
2018-05-02T04:11:26.780Z,2.93
2018-05-02T04:14:31.729Z,2.91
2018-05-02T04:17:36.933Z,2.97
2018-05-02T04:20:43.087Z,2.93
2018-05-02T04:23:48.691Z,2.95
2018-05-02T04:26:54.709Z,2.93
2018-05-02T04:30:00.161Z,2.78
2018-05-02T04:33:05.101Z,2.80
2018-05-02T04:36:11.638Z,2.80
2018-05-02T04:39:17.753Z,2.88
2018-05-02T04:42:24.641Z,2.89
2018-05-02T04:45:30.360Z,2.89
2018-05-02T04:48:35.625Z,2.89
2018-05-02T04:51:40.945Z,2.94
2018-05-02T04:54:46.863Z,2.96
2018-05-02T04:57:52.813Z,3.00
2018-05-02T05:00:58.842Z,2.93
2018-05-02T05:04:04.049Z,3.05
2018-05-02T05:07:10.198Z,3.04
2018-05-02T05:10:16.296Z,3.10
2018-05-02T05:13:22.411Z,3.14
2018-05-02T05:16:28.218Z,3.20
2018-05-02T05:19:34.373Z,3.32
2018-05-02T05:22:39.578Z,3.39
2018-05-02T05:25:44.826Z,3.50
2018-05-02T05:28:51.844Z,3.55
2018-05-02T05:31:57.979Z,3.60
2018-05-02T05:35:04.077Z,3.64
2018-05-02T05:38:11.085Z,3.68
2018-05-02T05:41:17.212Z,3.74
2018-05-02T05:44:22.418Z,3.82
2018-05-02T05:47:29.091Z,3.94
2018-05-02T05:50:34.693Z,4.03
2018-05-02T05:53:40.807Z,4.07
2018-05-02T05:56:46.005Z,4.13
2018-05-02T05:59:51.277Z,4.19
2018-05-02T06:02:56.482Z,4.28
2018-05-02T06:06:01.696Z,4.35
2018-05-02T06:09:07.998Z,4.41
2018-05-02T06:12:13.615Z,4.45
2018-05-02T06:15:20.639Z,4.55
2018-05-02T06:18:26.782Z,4.61
2018-05-02T06:21:31.977Z,4.71
2018-05-02T06:24:37.369Z,4.80
2018-05-02T06:27:42.596Z,4.88
2018-05-02T06:30:50.623Z,4.98
2018-05-02T06:33:56.469Z,5.05
2018-05-02T06:37:02.598Z,5.14
2018-05-02T06:40:09.111Z,5.21
2018-05-02T06:43:15.269Z,5.31
2018-05-02T06:46:20.469Z,5.40
2018-05-02T06:49:27.281Z,5.49
2018-05-02T06:52:32.467Z,5.58
2018-05-02T06:55:38.555Z,5.66
2018-05-02T06:58:44.665Z,5.75
2018-05-02T07:01:49.666Z,5.84
2018-05-02T07:04:55.772Z,5.92
2018-05-02T07:08:01.609Z,6.01
2018-05-02T07:11:06.812Z,6.11
2018-05-02T07:14:12.013Z,6.20
2018-05-02T07:17:17.211Z,6.31
2018-05-02T07:20:23.313Z,6.40
2018-05-02T07:23:29.424Z,6.49
2018-05-02T07:26:35.648Z,6.60
2018-05-02T07:29:40.846Z,6.72
2018-05-02T07:32:47.166Z,6.83
2018-05-02T07:35:52.449Z,6.94
2018-05-02T07:38:58.570Z,7.06
2018-05-02T07:42:04.247Z,7.18
2018-05-02T07:45:09.595Z,7.28
2018-05-02T07:48:14.790Z,7.41
2018-05-02T07:51:19.989Z,7.53
2018-05-02T07:54:25.192Z,7.65
2018-05-02T07:57:31.288Z,7.78
2018-05-02T08:00:37.111Z,7.91
2018-05-02T08:03:42.309Z,8.03
2018-05-02T08:06:48.845Z,8.16
2018-05-02T08:09:55.885Z,8.29
2018-05-02T08:13:02.030Z,8.42
2018-05-02T08:16:09.069Z,8.56
2018-05-02T08:19:16.173Z,8.70
2018-05-02T08:22:22.893Z,8.85
2018-05-02T08:25:29.921Z,9.00
2018-05-02T08:28:36.044Z,9.14
2018-05-02T08:31:42.159Z,9.30
2018-05-02T08:34:47.574Z,9.43
2018-05-02T08:37:52.773Z,9.56
2018-05-02T08:40:57.737Z,9.72
2018-05-02T08:44:02.618Z,9.85
2018-05-02T08:47:08.357Z,10.01
2018-05-02T08:50:13.285Z,10.14
2018-05-02T08:53:18.923Z,10.29
2018-05-02T08:56:25.854Z,10.44
2018-05-02T08:59:31.701Z,10.61
2018-05-02T09:02:38.543Z,10.76
2018-05-02T09:05:43.765Z,10.89
2018-05-02T09:08:49.883Z,11.04
2018-05-02T09:11:56.766Z,11.18
2018-05-02T09:15:03.086Z,11.35
2018-05-02T09:18:08.805Z,11.48
2018-05-02T09:21:14.754Z,11.61
2018-05-02T09:24:20.597Z,11.75
2018-05-02T09:27:27.737Z,11.90
2018-05-02T09:30:34.469Z,12.03
2018-05-02T09:33:41.513Z,12.16
2018-05-02T09:36:48.573Z,12.30
2018-05-02T09:39:54.422Z,12.44
2018-05-02T09:43:00.554Z,12.57
2018-05-02T09:46:06.903Z,12.75
2018-05-02T09:49:12.104Z,12.91
2018-05-02T09:52:17.592Z,12.98
2018-05-02T09:55:22.803Z,13.09
2018-05-02T09:58:28.236Z,13.21
2018-05-02T10:01:35.330Z,13.34
2018-05-02T10:04:42.373Z,13.46
2018-05-02T10:07:48.184Z,13.54
2018-05-02T10:10:54.105Z,13.64
2018-05-02T10:13:59.714Z,13.66
2018-05-02T10:17:04.680Z,13.66
2018-05-02T10:20:09.613Z,13.73
2018-05-02T10:23:15.342Z,13.75
2018-05-02T10:26:21.332Z,13.77
2018-05-02T10:29:26.686Z,13.83
2018-05-02T10:32:32.820Z,13.82
2018-05-02T10:35:38.034Z,13.85
2018-05-02T10:38:44.430Z,13.88
2018-05-02T10:41:51.181Z,13.97
2018-05-02T10:44:57.293Z,13.98
2018-05-02T10:48:02.913Z,14.02
2018-05-02T10:51:09.375Z,14.04
2018-05-02T10:54:15.393Z,14.08
2018-05-02T10:57:20.685Z,14.14
2018-05-02T11:00:25.953Z,14.17
2018-05-02T11:03:31.668Z,14.34
2018-05-02T11:06:37.167Z,14.30
2018-05-02T11:09:42.370Z,14.26
2018-05-02T11:12:48.999Z,14.30
2018-05-02T11:15:54.856Z,14.34
2018-05-02T11:18:59.449Z,14.34
2018-05-02T11:22:04.480Z,14.40
2018-05-02T11:25:09.865Z,14.36
2018-05-02T11:28:15.659Z,14.39
2018-05-02T11:31:21.007Z,14.44
2018-05-02T11:34:27.138Z,14.50
2018-05-02T11:37:32.344Z,14.56
2018-05-02T11:40:38.628Z,14.60
2018-05-02T11:43:44.845Z,14.70
2018-05-02T11:46:50.139Z,14.80
2018-05-02T11:49:56.309Z,14.83
2018-05-02T11:53:01.525Z,14.88
2018-05-02T11:56:08.576Z,14.87
2018-05-02T11:59:14.709Z,14.90
2018-05-02T12:02:19.916Z,14.95
2018-05-02T12:05:25.150Z,15.05
2018-05-02T12:08:32.209Z,15.14
2018-05-02T12:11:39.269Z,15.19
2018-05-02T12:14:46.241Z,15.26
2018-05-02T12:17:53.305Z,15.28
2018-05-02T12:21:00.447Z,15.34
2018-05-02T12:24:06.022Z,15.41
2018-05-02T12:27:13.079Z,15.51
2018-05-02T12:30:19.210Z,15.60
2018-05-02T12:33:25.234Z,15.62
2018-05-02T12:36:32.171Z,15.71
2018-05-02T12:39:38.221Z,15.84
2018-05-02T12:42:45.306Z,15.82
2018-05-02T12:45:50.514Z,15.91
2018-05-02T12:48:55.742Z,15.90
2018-05-02T12:52:01.963Z,15.90
2018-05-02T12:55:07.895Z,15.97
2018-05-02T12:58:13.302Z,16.02
2018-05-02T13:01:18.931Z,16.12
2018-05-02T13:04:25.069Z,16.21
2018-05-02T13:07:30.282Z,16.35
2018-05-02T13:10:35.491Z,16.28
2018-05-02T13:13:42.624Z,16.30
2018-05-02T13:16:48.454Z,16.37
2018-05-02T13:19:54.387Z,16.44
2018-05-02T13:23:00.535Z,16.58
2018-05-02T13:26:06.069Z,16.62
2018-05-02T13:29:11.198Z,16.66
2018-05-02T13:32:18.067Z,16.63
2018-05-02T13:35:24.169Z,16.63
2018-05-02T13:38:30.283Z,16.67
2018-05-02T13:41:36.815Z,16.76
2018-05-02T13:44:43.868Z,16.82
2018-05-02T13:47:50.091Z,16.85
2018-05-02T13:50:55.914Z,16.90
2018-05-02T13:54:02.083Z,16.92
2018-05-02T13:57:07.381Z,17.06
2018-05-02T14:00:12.592Z,17.02
2018-05-02T14:03:18.257Z,17.11
2018-05-02T14:06:23.465Z,17.17
2018-05-02T14:09:29.242Z,17.07
2018-05-02T14:12:35.352Z,17.04
2018-05-02T14:15:40.969Z,16.98
2018-05-02T14:18:46.210Z,16.98
2018-05-02T14:21:51.418Z,16.99
2018-05-02T14:24:56.634Z,17.18
2018-05-02T14:28:01.843Z,17.16
2018-05-02T14:31:07.059Z,17.12
2018-05-02T14:34:13.889Z,17.08
2018-05-02T14:37:19.712Z,17.10
2018-05-02T14:40:25.822Z,17.04
2018-05-02T14:43:31.461Z,17.01
2018-05-02T14:46:37.610Z,16.96
2018-05-02T14:49:44.657Z,16.95
2018-05-02T14:52:51.665Z,16.97
2018-05-02T14:55:57.799Z,17.03
2018-05-02T14:59:03.966Z,17.09
2018-05-02T15:02:11.101Z,17.08
2018-05-02T15:05:17.946Z,17.03
2018-05-02T15:08:24.105Z,17.06
2018-05-02T15:11:30.266Z,17.12
2018-05-02T15:14:35.502Z,17.06
2018-05-02T15:17:40.709Z,17.09
2018-05-02T15:20:45.693Z,17.04
2018-05-02T15:23:50.905Z,17.09
2018-05-02T15:26:56.580Z,17.14
2018-05-02T15:30:02.689Z,17.10
2018-05-02T15:33:08.599Z,17.09
2018-05-02T15:36:13.812Z,17.14
2018-05-02T15:39:19.016Z,17.08
2018-05-02T15:42:25.156Z,17.14
2018-05-02T15:45:32.292Z,17.01
2018-05-02T15:48:37.787Z,17.01
2018-05-02T15:51:43.513Z,16.99
2018-05-02T15:54:48.774Z,16.92
2018-05-02T15:57:54.031Z,16.97
2018-05-02T16:01:01.132Z,16.89
2018-05-02T16:04:06.696Z,16.82
2018-05-02T16:07:12.047Z,16.78
2018-05-02T16:10:17.289Z,16.81
2018-05-02T16:13:22.497Z,16.77
2018-05-02T16:16:27.764Z,16.78
2018-05-02T16:19:32.883Z,16.72
2018-05-02T16:22:38.097Z,16.70
2018-05-02T16:25:43.305Z,16.64
2018-05-02T16:28:49.433Z,16.63
2018-05-02T16:31:56.549Z,16.56
2018-05-02T16:35:02.376Z,16.56
2018-05-02T16:38:07.681Z,16.53
2018-05-02T16:41:12.894Z,16.60
2018-05-02T16:44:18.106Z,16.52
2018-05-02T16:47:23.069Z,16.46
2018-05-02T16:50:28.282Z,16.32
2018-05-02T16:53:34.069Z,16.26
2018-05-02T16:56:40.257Z,16.22
2018-05-02T16:59:46.518Z,16.11
2018-05-02T17:02:51.739Z,16.10
2018-05-02T17:05:58.102Z,16.02
2018-05-02T17:09:03.491Z,16.02
2018-05-02T17:12:09.639Z,15.94
2018-05-02T17:15:14.849Z,15.84
2018-05-02T17:18:20.103Z,15.79
2018-05-02T17:21:25.346Z,15.71
2018-05-02T17:24:30.713Z,15.66
2018-05-02T17:27:35.914Z,15.62
2018-05-02T17:30:42.029Z,15.60
2018-05-02T17:33:47.952Z,15.50
2018-05-02T17:36:54.368Z,15.42
2018-05-02T17:39:59.736Z,15.38
2018-05-02T17:43:04.637Z,15.34
2018-05-02T17:46:10.768Z,15.29
2018-05-02T17:49:17.920Z,15.25
2018-05-02T17:52:24.773Z,15.18
2018-05-02T17:55:31.602Z,15.12
2018-05-02T17:58:38.745Z,15.08
2018-05-02T18:01:44.604Z,15.03
2018-05-02T18:04:51.546Z,14.97
2018-05-02T18:07:57.362Z,14.91
2018-05-02T18:11:03.481Z,14.87
2018-05-02T18:14:09.634Z,14.81
2018-05-02T18:17:15.777Z,14.75
2018-05-02T18:20:21.894Z,14.69
2018-05-02T18:23:27.596Z,14.64
2018-05-02T18:26:33.713Z,14.58
2018-05-02T18:29:38.921Z,14.51
2018-05-02T18:32:44.555Z,14.45
2018-05-02T18:35:50.719Z,14.39
2018-05-02T18:38:55.925Z,14.34
2018-05-02T18:42:02.050Z,14.29
2018-05-02T18:45:07.679Z,14.22
2018-05-02T18:48:12.882Z,14.17
2018-05-02T18:51:19.509Z,14.12
2018-05-02T18:54:25.689Z,14.05
2018-05-02T18:57:31.723Z,13.98
2018-05-02T19:00:37.837Z,13.92
2018-05-02T19:03:43.473Z,13.87
2018-05-02T19:06:50.606Z,13.81
2018-05-02T19:09:56.429Z,13.74
2018-05-02T19:13:03.370Z,13.68
2018-05-02T19:16:10.486Z,13.61
2018-05-02T19:19:21.705Z,13.56
2018-05-02T19:22:26.917Z,13.49
2018-05-02T19:25:37.385Z,13.42
2018-05-02T19:28:43.404Z,13.36
2018-05-02T19:31:54.588Z,13.29
2018-05-02T19:35:00.533Z,13.24
2018-05-02T19:38:06.653Z,13.16
2018-05-02T19:41:18.027Z,13.11
2018-05-02T19:44:23.854Z,13.05
2018-05-02T19:47:30.894Z,12.99
2018-05-02T19:50:36.509Z,12.93
2018-05-02T19:53:42.732Z,12.89
2018-05-02T19:56:49.489Z,12.82
2018-05-02T19:59:55.600Z,12.76
2018-05-02T20:03:01.193Z,12.71
2018-05-02T20:06:07.037Z,12.63
2018-05-02T20:09:17.522Z,12.60
2018-05-02T20:12:28.964Z,12.54
2018-05-02T20:15:36.021Z,12.51
2018-05-02T20:18:42.193Z,12.44
2018-05-02T20:21:47.405Z,12.39
2018-05-02T20:24:52.695Z,12.34
2018-05-02T20:27:58.801Z,12.29
2018-05-02T20:31:04.009Z,12.24
2018-05-02T20:34:09.223Z,12.17
2018-05-02T20:37:14.844Z,12.09
2018-05-02T20:40:20.057Z,12.03
2018-05-02T20:43:25.264Z,11.94
2018-05-02T20:46:31.863Z,11.89
2018-05-02T20:49:38.061Z,11.89
2018-05-02T20:52:44.175Z,11.83
2018-05-02T20:55:51.001Z,11.77
2018-05-02T20:58:57.177Z,11.72
2018-05-02T21:02:02.390Z,11.63
2018-05-02T21:05:07.785Z,11.58
2018-05-02T21:08:13.641Z,11.57
2018-05-02T21:11:19.437Z,11.46
2018-05-02T21:14:26.186Z,11.43
2018-05-02T21:17:32.021Z,11.40
2018-05-02T21:20:37.313Z,11.31
2018-05-02T21:23:42.678Z,11.28
2018-05-02T21:26:49.354Z,11.19
2018-05-02T21:29:55.546Z,11.08
2018-05-02T21:33:02.409Z,11.01
2018-05-02T21:36:08.526Z,10.95
2018-05-02T21:39:15.351Z,10.90
2018-05-02T21:42:21.481Z,10.89
2018-05-02T21:45:27.619Z,10.84
2018-05-02T21:48:33.543Z,10.79
2018-05-02T21:51:40.394Z,10.71
2018-05-02T21:54:46.548Z,10.66
2018-05-02T21:57:51.808Z,10.60
2018-05-02T22:00:57.027Z,10.52
2018-05-02T22:04:03.677Z,10.48
2018-05-02T22:07:10.433Z,10.45
2018-05-02T22:10:16.044Z,10.41
2018-05-02T22:13:21.254Z,10.38
2018-05-02T22:16:26.868Z,10.32
2018-05-02T22:19:32.912Z,10.28
2018-05-02T22:22:39.014Z,10.23
2018-05-02T22:25:44.654Z,10.18
2018-05-02T22:28:50.600Z,10.17
2018-05-02T22:31:57.595Z,10.08
2018-05-02T22:35:03.724Z,10.02
2018-05-02T22:38:10.536Z,9.99
2018-05-02T22:41:17.657Z,9.91
2018-05-02T22:44:23.553Z,9.90
2018-05-02T22:47:29.421Z,9.85
2018-05-02T22:50:36.450Z,9.80
2018-05-02T22:53:42.589Z,9.78
2018-05-02T22:56:48.733Z,9.78
2018-05-02T22:59:54.841Z,9.70
2018-05-02T23:03:00.982Z,9.70
2018-05-02T23:06:06.181Z,9.71
2018-05-02T23:09:11.807Z,9.65
2018-05-02T23:12:17.784Z,9.61
2018-05-02T23:15:24.645Z,9.63
2018-05-02T23:18:30.768Z,9.60
2018-05-02T23:21:36.901Z,9.58
2018-05-02T23:24:42.754Z,9.56
2018-05-02T23:27:48.880Z,9.62
2018-05-02T23:30:54.294Z,9.59
2018-05-02T23:33:59.506Z,9.55
2018-05-02T23:37:04.485Z,9.55
2018-05-02T23:40:09.718Z,9.56
2018-05-02T23:43:14.918Z,9.52
2018-05-02T23:46:20.120Z,9.48
2018-05-02T23:49:25.365Z,9.52
2018-05-02T23:52:30.589Z,9.54
2018-05-02T23:55:36.701Z,9.47
2018-05-02T23:58:42.817Z,9.44
